sensor_id;sensor_type;location;lat;lon;timestamp;P1;durP1;ratioP1;P2;durP2;ratioP2
12597;SDS011;6364;53.590;9.956;2022-11-23T00:02:12;50.50;;;23.48;;
12597;SDS011;6364;53.590;9.956;2022-11-23T00:04:37;48.38;;;24.00;;
12597;SDS011;6364;53.590;9.956;2022-11-23T00:07:03;50.85;;;24.60;;
12597;SDS011;6364;53.590;9.956;2022-11-23T00:09:28;48.22;;;23.95;;
12597;SDS011;6364;53.590;9.956;2022-11-23T00:11:53;51.35;;;24.70;;
12597;SDS011;6364;53.590;9.956;2022-11-23T00:14:19;55.25;;;25.15;;
12597;SDS011;6364;53.590;9.956;2022-11-23T00:16:44;48.60;;;24.63;;
12597;SDS011;6364;53.590;9.956;2022-11-23T00:19:09;52.85;;;25.13;;
12597;SDS011;6364;53.590;9.956;2022-11-23T00:21:35;48.05;;;23.73;;
12597;SDS011;6364;53.590;9.956;2022-11-23T00:24:00;52.53;;;24.10;;
12597;SDS011;6364;53.590;9.956;2022-11-23T00:26:26;49.03;;;24.63;;
12597;SDS011;6364;53.590;9.956;2022-11-23T00:28:51;51.53;;;24.65;;
12597;SDS011;6364;53.590;9.956;2022-11-23T00:31:17;51.08;;;24.67;;
12597;SDS011;6364;53.590;9.956;2022-11-23T00:33:47;45.33;;;23.80;;
12597;SDS011;6364;53.590;9.956;2022-11-23T00:36:16;48.47;;;24.15;;
12597;SDS011;6364;53.590;9.956;2022-11-23T00:38:42;51.70;;;25.02;;
12597;SDS011;6364;53.590;9.956;2022-11-23T00:41:09;52.50;;;23.52;;
12597;SDS011;6364;53.590;9.956;2022-11-23T00:43:36;53.35;;;24.65;;
12597;SDS011;6364;53.590;9.956;2022-11-23T00:46:02;47.17;;;23.10;;
12597;SDS011;6364;53.590;9.956;2022-11-23T00:48:36;53.55;;;23.73;;
12597;SDS011;6364;53.590;9.956;2022-11-23T00:51:02;49.22;;;22.80;;
12597;SDS011;6364;53.590;9.956;2022-11-23T00:53:29;46.03;;;23.25;;
12597;SDS011;6364;53.590;9.956;2022-11-23T00:55:54;47.13;;;23.23;;
12597;SDS011;6364;53.590;9.956;2022-11-23T00:58:20;46.53;;;23.38;;
12597;SDS011;6364;53.590;9.956;2022-11-23T01:00:46;51.53;;;23.88;;
12597;SDS011;6364;53.590;9.956;2022-11-23T01:03:12;46.85;;;23.77;;
12597;SDS011;6364;53.590;9.956;2022-11-23T01:05:38;50.33;;;23.13;;
12597;SDS011;6364;53.590;9.956;2022-11-23T01:08:03;48.95;;;23.70;;
12597;SDS011;6364;53.590;9.956;2022-11-23T01:10:29;47.72;;;23.15;;
12597;SDS011;6364;53.590;9.956;2022-11-23T01:12:55;44.53;;;23.45;;
12597;SDS011;6364;53.590;9.956;2022-11-23T01:15:20;46.88;;;22.70;;
12597;SDS011;6364;53.590;9.956;2022-11-23T01:17:46;43.47;;;21.73;;
12597;SDS011;6364;53.590;9.956;2022-11-23T01:20:11;47.50;;;23.15;;
12597;SDS011;6364;53.590;9.956;2022-11-23T01:22:36;48.60;;;23.30;;
12597;SDS011;6364;53.590;9.956;2022-11-23T01:25:02;47.05;;;22.85;;
12597;SDS011;6364;53.590;9.956;2022-11-23T01:27:27;47.28;;;23.05;;
12597;SDS011;6364;53.590;9.956;2022-11-23T01:29:52;47.15;;;21.80;;
12597;SDS011;6364;53.590;9.956;2022-11-23T01:32:18;46.80;;;21.98;;
12597;SDS011;6364;53.590;9.956;2022-11-23T01:34:43;54.38;;;23.63;;
12597;SDS011;6364;53.590;9.956;2022-11-23T01:37:08;40.60;;;21.70;;
12597;SDS011;6364;53.590;9.956;2022-11-23T01:39:34;46.58;;;22.65;;
12597;SDS011;6364;53.590;9.956;2022-11-23T01:41:59;46.95;;;22.42;;
12597;SDS011;6364;53.590;9.956;2022-11-23T01:44:28;46.33;;;22.27;;
12597;SDS011;6364;53.590;9.956;2022-11-23T01:46:56;39.40;;;20.25;;
12597;SDS011;6364;53.590;9.956;2022-11-23T01:49:23;43.47;;;22.02;;
12597;SDS011;6364;53.590;9.956;2022-11-23T01:51:50;46.25;;;22.83;;
12597;SDS011;6364;53.590;9.956;2022-11-23T01:54:21;46.15;;;22.48;;
12597;SDS011;6364;53.590;9.956;2022-11-23T01:56:50;46.97;;;22.73;;
12597;SDS011;6364;53.590;9.956;2022-11-23T01:59:18;41.45;;;21.58;;
12597;SDS011;6364;53.590;9.956;2022-11-23T02:01:44;46.72;;;21.27;;
12597;SDS011;6364;53.590;9.956;2022-11-23T02:04:31;43.20;;;21.52;;
12597;SDS011;6364;53.590;9.956;2022-11-23T02:06:57;42.05;;;21.58;;
12597;SDS011;6364;53.590;9.956;2022-11-23T02:09:24;46.97;;;20.52;;
12597;SDS011;6364;53.590;9.956;2022-11-23T02:11:50;40.80;;;20.83;;
12597;SDS011;6364;53.590;9.956;2022-11-23T02:14:16;41.92;;;21.55;;
12597;SDS011;6364;53.590;9.956;2022-11-23T02:16:41;46.22;;;22.05;;
12597;SDS011;6364;53.590;9.956;2022-11-23T02:19:07;42.85;;;21.63;;
12597;SDS011;6364;53.590;9.956;2022-11-23T02:21:39;27.50;;;14.37;;
12597;SDS011;6364;53.590;9.956;2022-11-23T02:24:10;41.78;;;21.13;;
12597;SDS011;6364;53.590;9.956;2022-11-23T02:26:38;40.65;;;20.48;;
12597;SDS011;6364;53.590;9.956;2022-11-23T02:29:06;44.92;;;22.60;;
12597;SDS011;6364;53.590;9.956;2022-11-23T02:31:35;42.47;;;21.90;;
12597;SDS011;6364;53.590;9.956;2022-11-23T02:34:01;46.80;;;20.60;;
12597;SDS011;6364;53.590;9.956;2022-11-23T02:41:57;39.60;;;20.35;;
12597;SDS011;6364;53.590;9.956;2022-11-23T02:47:07;39.90;;;20.13;;
12597;SDS011;6364;53.590;9.956;2022-11-23T02:49:34;41.55;;;21.40;;
12597;SDS011;6364;53.590;9.956;2022-11-23T02:51:59;44.50;;;21.67;;
12597;SDS011;6364;53.590;9.956;2022-11-23T02:54:25;46.20;;;21.27;;
12597;SDS011;6364;53.590;9.956;2022-11-23T02:56:51;47.55;;;21.50;;
12597;SDS011;6364;53.590;9.956;2022-11-23T02:59:16;43.75;;;21.17;;
12597;SDS011;6364;53.590;9.956;2022-11-23T03:01:42;43.22;;;21.02;;
12597;SDS011;6364;53.590;9.956;2022-11-23T03:04:07;47.15;;;21.75;;
12597;SDS011;6364;53.590;9.956;2022-11-23T03:06:33;43.20;;;21.15;;
12597;SDS011;6364;53.590;9.956;2022-11-23T03:08:58;40.85;;;20.77;;
12597;SDS011;6364;53.590;9.956;2022-11-23T03:11:24;44.20;;;21.58;;
12597;SDS011;6364;53.590;9.956;2022-11-23T03:13:49;48.80;;;21.65;;
12597;SDS011;6364;53.590;9.956;2022-11-23T03:16:14;50.33;;;22.85;;
12597;SDS011;6364;53.590;9.956;2022-11-23T03:18:40;45.13;;;21.52;;
12597;SDS011;6364;53.590;9.956;2022-11-23T03:21:06;47.00;;;21.30;;
12597;SDS011;6364;53.590;9.956;2022-11-23T03:23:34;44.42;;;21.70;;
12597;SDS011;6364;53.590;9.956;2022-11-23T03:26:00;43.25;;;21.73;;
12597;SDS011;6364;53.590;9.956;2022-11-23T03:28:26;43.17;;;20.70;;
12597;SDS011;6364;53.590;9.956;2022-11-23T03:30:51;47.42;;;22.50;;
12597;SDS011;6364;53.590;9.956;2022-11-23T03:33:17;44.38;;;21.50;;
12597;SDS011;6364;53.590;9.956;2022-11-23T03:35:42;47.88;;;21.15;;
12597;SDS011;6364;53.590;9.956;2022-11-23T03:38:08;48.47;;;21.73;;
12597;SDS011;6364;53.590;9.956;2022-11-23T03:40:33;45.05;;;22.13;;
12597;SDS011;6364;53.590;9.956;2022-11-23T03:42:58;46.33;;;21.90;;
12597;SDS011;6364;53.590;9.956;2022-11-23T03:45:24;42.67;;;20.90;;
12597;SDS011;6364;53.590;9.956;2022-11-23T03:47:49;45.47;;;21.73;;
12597;SDS011;6364;53.590;9.956;2022-11-23T03:50:14;44.63;;;20.92;;
12597;SDS011;6364;53.590;9.956;2022-11-23T03:52:40;43.28;;;21.50;;
12597;SDS011;6364;53.590;9.956;2022-11-23T03:55:05;40.65;;;20.48;;
12597;SDS011;6364;53.590;9.956;2022-11-23T03:57:31;41.53;;;20.85;;
12597;SDS011;6364;53.590;9.956;2022-11-23T03:59:56;46.88;;;21.63;;
12597;SDS011;6364;53.590;9.956;2022-11-23T04:02:22;45.90;;;20.83;;
12597;SDS011;6364;53.590;9.956;2022-11-23T04:04:47;38.10;;;19.83;;
12597;SDS011;6364;53.590;9.956;2022-11-23T04:07:12;45.90;;;22.08;;
12597;SDS011;6364;53.590;9.956;2022-11-23T04:09:37;46.13;;;21.02;;
12597;SDS011;6364;53.590;9.956;2022-11-23T04:12:03;40.20;;;19.83;;
12597;SDS011;6364;53.590;9.956;2022-11-23T04:14:29;39.50;;;19.33;;
12597;SDS011;6364;53.590;9.956;2022-11-23T04:16:54;41.33;;;19.73;;
12597;SDS011;6364;53.590;9.956;2022-11-23T04:19:19;44.90;;;20.02;;
12597;SDS011;6364;53.590;9.956;2022-11-23T04:21:45;44.45;;;20.27;;
12597;SDS011;6364;53.590;9.956;2022-11-23T04:24:10;40.42;;;19.98;;
12597;SDS011;6364;53.590;9.956;2022-11-23T04:26:35;39.60;;;19.88;;
12597;SDS011;6364;53.590;9.956;2022-11-23T04:29:01;42.13;;;18.73;;
12597;SDS011;6364;53.590;9.956;2022-11-23T04:31:26;38.80;;;19.70;;
12597;SDS011;6364;53.590;9.956;2022-11-23T04:33:53;43.50;;;20.55;;
12597;SDS011;6364;53.590;9.956;2022-11-23T04:36:19;41.20;;;20.90;;
12597;SDS011;6364;53.590;9.956;2022-11-23T04:38:44;37.58;;;19.77;;
12597;SDS011;6364;53.590;9.956;2022-11-23T04:41:09;38.20;;;19.38;;
12597;SDS011;6364;53.590;9.956;2022-11-23T04:43:35;40.22;;;19.58;;
12597;SDS011;6364;53.590;9.956;2022-11-23T04:46:00;38.72;;;18.60;;
12597;SDS011;6364;53.590;9.956;2022-11-23T04:48:25;37.88;;;19.85;;
12597;SDS011;6364;53.590;9.956;2022-11-23T04:50:51;40.85;;;19.88;;
12597;SDS011;6364;53.590;9.956;2022-11-23T04:53:16;34.58;;;18.42;;
12597;SDS011;6364;53.590;9.956;2022-11-23T04:55:41;33.10;;;18.75;;
12597;SDS011;6364;53.590;9.956;2022-11-23T04:58:07;35.25;;;18.30;;
12597;SDS011;6364;53.590;9.956;2022-11-23T05:00:32;33.90;;;18.27;;
12597;SDS011;6364;53.590;9.956;2022-11-23T05:02:58;34.83;;;18.88;;
12597;SDS011;6364;53.590;9.956;2022-11-23T05:05:24;33.08;;;17.70;;
12597;SDS011;6364;53.590;9.956;2022-11-23T05:07:50;34.70;;;18.45;;
12597;SDS011;6364;53.590;9.956;2022-11-23T05:10:15;35.78;;;18.75;;
12597;SDS011;6364;53.590;9.956;2022-11-23T05:12:40;36.58;;;17.55;;
12597;SDS011;6364;53.590;9.956;2022-11-23T05:15:06;39.30;;;18.98;;
12597;SDS011;6364;53.590;9.956;2022-11-23T05:17:32;36.25;;;18.08;;
12597;SDS011;6364;53.590;9.956;2022-11-23T05:19:58;36.22;;;18.38;;
12597;SDS011;6364;53.590;9.956;2022-11-23T05:22:23;31.45;;;18.20;;
12597;SDS011;6364;53.590;9.956;2022-11-23T05:24:49;31.70;;;18.05;;
12597;SDS011;6364;53.590;9.956;2022-11-23T05:27:14;32.00;;;18.50;;
12597;SDS011;6364;53.590;9.956;2022-11-23T05:29:39;34.28;;;17.55;;
12597;SDS011;6364;53.590;9.956;2022-11-23T05:32:04;33.58;;;17.90;;
12597;SDS011;6364;53.590;9.956;2022-11-23T05:34:30;32.55;;;18.35;;
12597;SDS011;6364;53.590;9.956;2022-11-23T05:36:55;31.88;;;17.45;;
12597;SDS011;6364;53.590;9.956;2022-11-23T05:39:20;34.80;;;18.70;;
12597;SDS011;6364;53.590;9.956;2022-11-23T05:41:46;33.33;;;18.55;;
12597;SDS011;6364;53.590;9.956;2022-11-23T05:44:12;38.03;;;18.58;;
12597;SDS011;6364;53.590;9.956;2022-11-23T05:46:37;36.70;;;18.17;;
12597;SDS011;6364;53.590;9.956;2022-11-23T05:49:02;36.67;;;18.80;;
12597;SDS011;6364;53.590;9.956;2022-11-23T05:51:28;37.90;;;17.98;;
12597;SDS011;6364;53.590;9.956;2022-11-23T05:53:53;34.55;;;19.08;;
12597;SDS011;6364;53.590;9.956;2022-11-23T05:56:21;34.30;;;17.70;;
12597;SDS011;6364;53.590;9.956;2022-11-23T05:58:46;36.30;;;19.55;;
12597;SDS011;6364;53.590;9.956;2022-11-23T06:01:11;37.92;;;20.38;;
12597;SDS011;6364;53.590;9.956;2022-11-23T06:03:37;39.72;;;19.52;;
12597;SDS011;6364;53.590;9.956;2022-11-23T06:06:02;38.92;;;18.67;;
12597;SDS011;6364;53.590;9.956;2022-11-23T06:08:27;35.92;;;18.95;;
12597;SDS011;6364;53.590;9.956;2022-11-23T06:10:53;40.33;;;18.20;;
12597;SDS011;6364;53.590;9.956;2022-11-23T06:13:18;38.75;;;18.83;;
12597;SDS011;6364;53.590;9.956;2022-11-23T06:15:43;36.92;;;19.02;;
12597;SDS011;6364;53.590;9.956;2022-11-23T06:18:09;39.30;;;18.00;;
12597;SDS011;6364;53.590;9.956;2022-11-23T06:20:34;39.47;;;18.92;;
12597;SDS011;6364;53.590;9.956;2022-11-23T06:23:00;36.38;;;19.00;;
12597;SDS011;6364;53.590;9.956;2022-11-23T06:25:25;34.33;;;17.98;;
12597;SDS011;6364;53.590;9.956;2022-11-23T06:27:54;40.00;;;17.88;;
12597;SDS011;6364;53.590;9.956;2022-11-23T06:30:20;36.92;;;17.98;;
12597;SDS011;6364;53.590;9.956;2022-11-23T06:32:46;41.47;;;19.23;;
12597;SDS011;6364;53.590;9.956;2022-11-23T06:35:11;42.15;;;18.92;;
12597;SDS011;6364;53.590;9.956;2022-11-23T06:37:36;35.53;;;17.50;;
12597;SDS011;6364;53.590;9.956;2022-11-23T06:40:02;37.47;;;18.58;;
12597;SDS011;6364;53.590;9.956;2022-11-23T06:42:27;35.70;;;17.13;;
12597;SDS011;6364;53.590;9.956;2022-11-23T06:44:52;38.22;;;17.85;;
12597;SDS011;6364;53.590;9.956;2022-11-23T06:47:18;33.83;;;18.17;;
12597;SDS011;6364;53.590;9.956;2022-11-23T06:49:43;35.05;;;17.38;;
12597;SDS011;6364;53.590;9.956;2022-11-23T06:52:09;33.95;;;17.30;;
12597;SDS011;6364;53.590;9.956;2022-11-23T06:54:34;33.50;;;17.77;;
12597;SDS011;6364;53.590;9.956;2022-11-23T06:56:59;33.92;;;17.88;;
12597;SDS011;6364;53.590;9.956;2022-11-23T06:59:25;34.53;;;17.15;;
12597;SDS011;6364;53.590;9.956;2022-11-23T07:01:50;34.95;;;17.77;;
12597;SDS011;6364;53.590;9.956;2022-11-23T07:04:16;34.70;;;17.85;;
12597;SDS011;6364;53.590;9.956;2022-11-23T07:06:41;34.65;;;17.02;;
12597;SDS011;6364;53.590;9.956;2022-11-23T07:09:06;35.15;;;17.73;;
12597;SDS011;6364;53.590;9.956;2022-11-23T07:11:33;33.20;;;16.70;;
12597;SDS011;6364;53.590;9.956;2022-11-23T07:13:58;31.05;;;17.35;;
12597;SDS011;6364;53.590;9.956;2022-11-23T07:16:24;37.85;;;17.23;;
12597;SDS011;6364;53.590;9.956;2022-11-23T07:18:49;34.60;;;18.17;;
12597;SDS011;6364;53.590;9.956;2022-11-23T07:21:14;38.00;;;18.42;;
12597;SDS011;6364;53.590;9.956;2022-11-23T07:23:40;36.53;;;17.25;;
12597;SDS011;6364;53.590;9.956;2022-11-23T07:26:06;33.70;;;16.65;;
12597;SDS011;6364;53.590;9.956;2022-11-23T07:28:32;36.17;;;16.73;;
12597;SDS011;6364;53.590;9.956;2022-11-23T07:30:57;31.02;;;17.33;;
12597;SDS011;6364;53.590;9.956;2022-11-23T07:33:23;30.60;;;16.85;;
12597;SDS011;6364;53.590;9.956;2022-11-23T07:35:48;31.88;;;17.17;;
12597;SDS011;6364;53.590;9.956;2022-11-23T07:38:13;31.38;;;16.10;;
12597;SDS011;6364;53.590;9.956;2022-11-23T07:40:39;34.05;;;17.02;;
12597;SDS011;6364;53.590;9.956;2022-11-23T07:43:05;29.90;;;16.52;;
12597;SDS011;6364;53.590;9.956;2022-11-23T07:45:30;35.20;;;16.58;;
12597;SDS011;6364;53.590;9.956;2022-11-23T07:48:06;30.92;;;16.30;;
12597;SDS011;6364;53.590;9.956;2022-11-23T07:50:33;33.58;;;15.82;;
12597;SDS011;6364;53.590;9.956;2022-11-23T07:53:00;28.38;;;16.23;;
12597;SDS011;6364;53.590;9.956;2022-11-23T07:55:25;30.52;;;15.10;;
12597;SDS011;6364;53.590;9.956;2022-11-23T07:57:52;31.48;;;16.42;;
12597;SDS011;6364;53.590;9.956;2022-11-23T08:00:19;32.33;;;15.70;;
12597;SDS011;6364;53.590;9.956;2022-11-23T08:02:48;27.85;;;15.40;;
12597;SDS011;6364;53.590;9.956;2022-11-23T08:05:13;27.80;;;14.90;;
12597;SDS011;6364;53.590;9.956;2022-11-23T08:07:39;33.15;;;15.30;;
12597;SDS011;6364;53.590;9.956;2022-11-23T08:10:04;31.23;;;15.20;;
12597;SDS011;6364;53.590;9.956;2022-11-23T08:12:30;27.65;;;13.65;;
12597;SDS011;6364;53.590;9.956;2022-11-23T08:14:55;29.15;;;14.48;;
12597;SDS011;6364;53.590;9.956;2022-11-23T08:17:20;29.73;;;14.50;;
12597;SDS011;6364;53.590;9.956;2022-11-23T08:19:46;34.42;;;15.40;;
12597;SDS011;6364;53.590;9.956;2022-11-23T08:22:11;29.85;;;14.23;;
12597;SDS011;6364;53.590;9.956;2022-11-23T08:24:36;27.92;;;13.90;;
12597;SDS011;6364;53.590;9.956;2022-11-23T08:27:02;30.33;;;14.82;;
12597;SDS011;6364;53.590;9.956;2022-11-23T08:29:28;29.30;;;13.98;;
12597;SDS011;6364;53.590;9.956;2022-11-23T08:31:53;28.27;;;13.57;;
12597;SDS011;6364;53.590;9.956;2022-11-23T08:34:19;22.48;;;12.93;;
12597;SDS011;6364;53.590;9.956;2022-11-23T08:36:44;22.83;;;13.05;;
12597;SDS011;6364;53.590;9.956;2022-11-23T08:39:10;23.75;;;13.27;;
12597;SDS011;6364;53.590;9.956;2022-11-23T08:41:36;23.92;;;13.45;;
12597;SDS011;6364;53.590;9.956;2022-11-23T08:44:02;25.75;;;13.43;;
12597;SDS011;6364;53.590;9.956;2022-11-23T08:46:28;27.40;;;13.20;;
12597;SDS011;6364;53.590;9.956;2022-11-23T08:48:53;26.27;;;12.52;;
12597;SDS011;6364;53.590;9.956;2022-11-23T08:51:18;22.30;;;12.75;;
12597;SDS011;6364;53.590;9.956;2022-11-23T08:53:47;27.58;;;13.23;;
12597;SDS011;6364;53.590;9.956;2022-11-23T08:56:15;25.58;;;14.20;;
12597;SDS011;6364;53.590;9.956;2022-11-23T08:58:40;20.27;;;12.07;;
12597;SDS011;6364;53.590;9.956;2022-11-23T09:01:09;23.45;;;12.55;;
12597;SDS011;6364;53.590;9.956;2022-11-23T09:03:35;23.38;;;12.55;;
12597;SDS011;6364;53.590;9.956;2022-11-23T09:06:00;27.25;;;12.40;;
12597;SDS011;6364;53.590;9.956;2022-11-23T09:08:26;22.92;;;11.88;;
12597;SDS011;6364;53.590;9.956;2022-11-23T09:10:51;20.35;;;11.88;;
12597;SDS011;6364;53.590;9.956;2022-11-23T09:13:17;21.80;;;11.18;;
12597;SDS011;6364;53.590;9.956;2022-11-23T09:15:42;22.92;;;11.20;;
12597;SDS011;6364;53.590;9.956;2022-11-23T09:20:35;24.20;;;11.23;;
12597;SDS011;6364;53.590;9.956;2022-11-23T09:23:00;21.05;;;11.48;;
12597;SDS011;6364;53.590;9.956;2022-11-23T09:25:26;19.98;;;10.85;;
12597;SDS011;6364;53.590;9.956;2022-11-23T09:27:57;25.73;;;11.23;;
12597;SDS011;6364;53.590;9.956;2022-11-23T09:30:23;19.77;;;10.43;;
12597;SDS011;6364;53.590;9.956;2022-11-23T09:32:49;21.25;;;10.32;;
12597;SDS011;6364;53.590;9.956;2022-11-23T09:35:14;17.50;;;10.98;;
12597;SDS011;6364;53.590;9.956;2022-11-23T09:37:40;20.30;;;9.88;;
12597;SDS011;6364;53.590;9.956;2022-11-23T09:40:05;19.75;;;10.30;;
12597;SDS011;6364;53.590;9.956;2022-11-23T09:45:13;17.92;;;8.95;;
12597;SDS011;6364;53.590;9.956;2022-11-23T09:47:50;19.17;;;9.52;;
12597;SDS011;6364;53.590;9.956;2022-11-23T09:53:20;20.15;;;9.40;;
12597;SDS011;6364;53.590;9.956;2022-11-23T09:55:48;17.63;;;9.23;;
12597;SDS011;6364;53.590;9.956;2022-11-23T09:58:17;23.75;;;9.77;;
12597;SDS011;6364;53.590;9.956;2022-11-23T10:00:53;20.10;;;9.30;;
12597;SDS011;6364;53.590;9.956;2022-11-23T10:03:24;20.77;;;8.88;;
12597;SDS011;6364;53.590;9.956;2022-11-23T10:06:06;16.35;;;8.90;;
12597;SDS011;6364;53.590;9.956;2022-11-23T10:11:52;16.55;;;8.55;;
12597;SDS011;6364;53.590;9.956;2022-11-23T10:17:28;13.90;;;7.82;;
12597;SDS011;6364;53.590;9.956;2022-11-23T10:25:21;17.10;;;7.63;;
12597;SDS011;6364;53.590;9.956;2022-11-23T10:27:49;17.10;;;7.20;;
12597;SDS011;6364;53.590;9.956;2022-11-23T10:30:17;11.48;;;7.28;;
12597;SDS011;6364;53.590;9.956;2022-11-23T10:32:50;15.38;;;6.93;;
12597;SDS011;6364;53.590;9.956;2022-11-23T10:35:30;13.30;;;7.22;;
12597;SDS011;6364;53.590;9.956;2022-11-23T10:38:09;16.63;;;7.20;;
12597;SDS011;6364;53.590;9.956;2022-11-23T10:40:54;18.23;;;7.90;;
12597;SDS011;6364;53.590;9.956;2022-11-23T10:43:42;13.88;;;6.80;;
12597;SDS011;6364;53.590;9.956;2022-11-23T10:46:21;13.85;;;7.03;;
12597;SDS011;6364;53.590;9.956;2022-11-23T10:48:50;12.85;;;6.70;;
12597;SDS011;6364;53.590;9.956;2022-11-23T10:51:28;17.33;;;7.88;;
12597;SDS011;6364;53.590;9.956;2022-11-23T10:53:56;13.70;;;7.15;;
12597;SDS011;6364;53.590;9.956;2022-11-23T10:56:23;13.30;;;7.60;;
12597;SDS011;6364;53.590;9.956;2022-11-23T10:58:49;13.38;;;7.43;;
12597;SDS011;6364;53.590;9.956;2022-11-23T11:01:15;13.68;;;6.82;;
12597;SDS011;6364;53.590;9.956;2022-11-23T11:03:46;12.23;;;6.90;;
12597;SDS011;6364;53.590;9.956;2022-11-23T11:06:18;14.70;;;6.57;;
12597;SDS011;6364;53.590;9.956;2022-11-23T11:08:56;14.85;;;6.93;;
12597;SDS011;6364;53.590;9.956;2022-11-23T11:11:32;18.13;;;6.63;;
12597;SDS011;6364;53.590;9.956;2022-11-23T11:14:03;15.82;;;7.45;;
12597;SDS011;6364;53.590;9.956;2022-11-23T11:16:33;16.92;;;6.75;;
12597;SDS011;6364;53.590;9.956;2022-11-23T11:19:21;13.27;;;6.15;;
12597;SDS011;6364;53.590;9.956;2022-11-23T11:22:00;16.83;;;6.43;;
12597;SDS011;6364;53.590;9.956;2022-11-23T11:24:43;14.65;;;6.70;;
12597;SDS011;6364;53.590;9.956;2022-11-23T11:27:12;13.05;;;6.53;;
12597;SDS011;6364;53.590;9.956;2022-11-23T11:32:12;11.13;;;5.72;;
12597;SDS011;6364;53.590;9.956;2022-11-23T11:37:44;13.60;;;5.78;;
12597;SDS011;6364;53.590;9.956;2022-11-23T11:40:18;14.13;;;6.68;;
12597;SDS011;6364;53.590;9.956;2022-11-23T11:45:59;12.95;;;6.57;;
12597;SDS011;6364;53.590;9.956;2022-11-23T11:48:29;14.95;;;7.03;;
12597;SDS011;6364;53.590;9.956;2022-11-23T11:56:33;15.55;;;6.93;;
12597;SDS011;6364;53.590;9.956;2022-11-23T12:04:19;14.38;;;6.75;;
12597;SDS011;6364;53.590;9.956;2022-11-23T12:07:34;13.55;;;6.45;;
12597;SDS011;6364;53.590;9.956;2022-11-23T12:09:43;23.02;;;6.75;;
12597;SDS011;6364;53.590;9.956;2022-11-23T12:12:12;11.68;;;6.53;;
12597;SDS011;6364;53.590;9.956;2022-11-23T12:14:40;15.27;;;6.53;;
12597;SDS011;6364;53.590;9.956;2022-11-23T12:19:46;14.20;;;6.60;;
12597;SDS011;6364;53.590;9.956;2022-11-23T12:25:00;13.07;;;5.70;;
12597;SDS011;6364;53.590;9.956;2022-11-23T12:36:02;11.95;;;5.93;;
12597;SDS011;6364;53.590;9.956;2022-11-23T12:41:21;15.50;;;6.25;;
12597;SDS011;6364;53.590;9.956;2022-11-23T12:43:52;10.48;;;5.45;;
12597;SDS011;6364;53.590;9.956;2022-11-23T12:46:32;14.98;;;5.82;;
12597;SDS011;6364;53.590;9.956;2022-11-23T12:49:28;13.57;;;5.57;;
12597;SDS011;6364;53.590;9.956;2022-11-23T12:54:56;11.63;;;4.90;;
12597;SDS011;6364;53.590;9.956;2022-11-23T12:57:27;13.23;;;5.95;;
12597;SDS011;6364;53.590;9.956;2022-11-23T12:59:57;11.90;;;4.63;;
12597;SDS011;6364;53.590;9.956;2022-11-23T13:11:09;15.32;;;5.13;;
12597;SDS011;6364;53.590;9.956;2022-11-23T13:13:51;12.45;;;5.50;;
12597;SDS011;6364;53.590;9.956;2022-11-23T13:16:32;11.30;;;5.38;;
12597;SDS011;6364;53.590;9.956;2022-11-23T13:19:24;12.73;;;4.85;;
12597;SDS011;6364;53.590;9.956;2022-11-23T13:21:54;14.25;;;4.72;;
12597;SDS011;6364;53.590;9.956;2022-11-23T13:24:23;13.40;;;4.68;;
12597;SDS011;6364;53.590;9.956;2022-11-23T13:34:58;17.00;;;4.75;;
12597;SDS011;6364;53.590;9.956;2022-11-23T13:37:23;11.57;;;4.43;;
12597;SDS011;6364;53.590;9.956;2022-11-23T13:42:21;14.80;;;4.25;;
12597;SDS011;6364;53.590;9.956;2022-11-23T13:44:53;10.38;;;4.53;;
12597;SDS011;6364;53.590;9.956;2022-11-23T13:48:02;9.43;;;3.70;;
12597;SDS011;6364;53.590;9.956;2022-11-23T13:50:34;12.50;;;4.22;;
12597;SDS011;6364;53.590;9.956;2022-11-23T13:53:01;8.32;;;4.70;;
12597;SDS011;6364;53.590;9.956;2022-11-23T13:55:32;11.52;;;4.78;;
12597;SDS011;6364;53.590;9.956;2022-11-23T14:06:26;9.52;;;3.58;;
12597;SDS011;6364;53.590;9.956;2022-11-23T14:09:16;10.00;;;4.00;;
12597;SDS011;6364;53.590;9.956;2022-11-23T14:11:57;8.85;;;3.65;;
12597;SDS011;6364;53.590;9.956;2022-11-23T14:28:00;8.50;;;3.03;;
12597;SDS011;6364;53.590;9.956;2022-11-23T14:30:37;9.82;;;3.53;;
12597;SDS011;6364;53.590;9.956;2022-11-23T14:36:11;8.95;;;3.92;;
12597;SDS011;6364;53.590;9.956;2022-11-23T14:41:29;15.68;;;4.13;;
12597;SDS011;6364;53.590;9.956;2022-11-23T14:43:59;12.30;;;4.30;;
12597;SDS011;6364;53.590;9.956;2022-11-23T14:46:24;8.88;;;4.07;;
12597;SDS011;6364;53.590;9.956;2022-11-23T14:48:50;9.70;;;4.32;;
12597;SDS011;6364;53.590;9.956;2022-11-23T14:51:17;11.73;;;4.20;;
12597;SDS011;6364;53.590;9.956;2022-11-23T14:53:45;11.65;;;4.18;;
12597;SDS011;6364;53.590;9.956;2022-11-23T14:56:25;8.95;;;4.18;;
12597;SDS011;6364;53.590;9.956;2022-11-23T14:59:18;9.30;;;3.65;;
12597;SDS011;6364;53.590;9.956;2022-11-23T15:01:47;14.20;;;4.40;;
12597;SDS011;6364;53.590;9.956;2022-11-23T15:04:22;10.20;;;4.50;;
12597;SDS011;6364;53.590;9.956;2022-11-23T15:06:54;17.75;;;5.30;;
12597;SDS011;6364;53.590;9.956;2022-11-23T15:12:06;12.95;;;4.45;;
12597;SDS011;6364;53.590;9.956;2022-11-23T15:14:32;10.60;;;5.15;;
12597;SDS011;6364;53.590;9.956;2022-11-23T15:17:14;14.18;;;5.75;;
12597;SDS011;6364;53.590;9.956;2022-11-23T15:19:51;15.57;;;6.05;;
12597;SDS011;6364;53.590;9.956;2022-11-23T15:22:23;17.05;;;6.30;;
12597;SDS011;6364;53.590;9.956;2022-11-23T15:24:50;11.77;;;6.10;;
12597;SDS011;6364;53.590;9.956;2022-11-23T15:27:18;15.15;;;6.57;;
12597;SDS011;6364;53.590;9.956;2022-11-23T15:29:52;14.15;;;6.80;;
12597;SDS011;6364;53.590;9.956;2022-11-23T15:34:51;14.82;;;6.47;;
12597;SDS011;6364;53.590;9.956;2022-11-23T15:37:18;15.23;;;7.30;;
12597;SDS011;6364;53.590;9.956;2022-11-23T15:39:44;16.27;;;6.93;;
12597;SDS011;6364;53.590;9.956;2022-11-23T15:42:12;9.50;;;6.35;;
12597;SDS011;6364;53.590;9.956;2022-11-23T15:44:39;11.50;;;6.55;;
12597;SDS011;6364;53.590;9.956;2022-11-23T15:47:05;16.65;;;7.63;;
12597;SDS011;6364;53.590;9.956;2022-11-23T15:49:37;15.80;;;6.57;;
12597;SDS011;6364;53.590;9.956;2022-11-23T15:52:03;17.15;;;7.13;;
12597;SDS011;6364;53.590;9.956;2022-11-23T15:54:35;15.35;;;6.65;;
12597;SDS011;6364;53.590;9.956;2022-11-23T15:57:01;12.82;;;6.15;;
12597;SDS011;6364;53.590;9.956;2022-11-23T16:02:05;11.68;;;6.25;;
12597;SDS011;6364;53.590;9.956;2022-11-23T16:04:39;12.75;;;6.55;;
12597;SDS011;6364;53.590;9.956;2022-11-23T16:07:24;14.05;;;7.30;;
12597;SDS011;6364;53.590;9.956;2022-11-23T16:10:06;15.02;;;6.93;;
12597;SDS011;6364;53.590;9.956;2022-11-23T16:12:47;21.33;;;8.30;;
12597;SDS011;6364;53.590;9.956;2022-11-23T16:17:56;14.95;;;7.68;;
12597;SDS011;6364;53.590;9.956;2022-11-23T16:20:23;15.57;;;7.60;;
12597;SDS011;6364;53.590;9.956;2022-11-23T16:22:49;17.40;;;8.80;;
12597;SDS011;6364;53.590;9.956;2022-11-23T16:25:31;17.95;;;9.18;;
12597;SDS011;6364;53.590;9.956;2022-11-23T16:27:58;20.05;;;9.57;;
12597;SDS011;6364;53.590;9.956;2022-11-23T16:30:27;16.70;;;9.32;;
12597;SDS011;6364;53.590;9.956;2022-11-23T16:32:59;19.73;;;10.40;;
12597;SDS011;6364;53.590;9.956;2022-11-23T16:35:24;20.55;;;10.70;;
12597;SDS011;6364;53.590;9.956;2022-11-23T16:37:50;16.65;;;10.02;;
12597;SDS011;6364;53.590;9.956;2022-11-23T16:40:15;21.60;;;10.40;;
12597;SDS011;6364;53.590;9.956;2022-11-23T16:42:41;16.17;;;10.80;;
12597;SDS011;6364;53.590;9.956;2022-11-23T16:45:06;16.70;;;10.48;;
12597;SDS011;6364;53.590;9.956;2022-11-23T16:47:32;19.90;;;10.75;;
12597;SDS011;6364;53.590;9.956;2022-11-23T16:49:58;20.08;;;10.93;;